Latest Weather Observations for Swan Island

IDT60801

Issued at 2:05 pm EST Monday 21 April 2014 (issued every 30 minutes, with the page automatically refreshed every 10 minutes)

About weather observations | Map of weather stations | Latest weather observations for TAS | Other Formats
Station Details ID: 092123 Name: SWAN ISLAND Lat: -40.73 Lon: 148.12 Height: 15.0 m
Data from the previous 72 hours. | See also: Recent months at Swan Island
Date/Time
EST
Temp
°C
App
Temp
°C
Dew
Point
Rel
Hum
%
Delta-T
°C
Wind Press
QNH
hPa
Press
MSL
hPa
Rain
since 9 am
mm
Dir
 
Spd
km/h
Gust
km/h
Spd
kts
Gust
kts
21/02:00pm 13.6 12.3 13.6 100 0.0 E 13 17 7 9 1016.1 1016.0 2.2
21/01:30pm 13.8 12.2 13.8 100 0.0 ESE 15 19 8 10 1016.5 - 2.2
21/01:00pm 13.6 11.9 13.6 100 0.0 ESE 15 19 8 10 1016.7 1016.6 2.2
21/12:30pm 13.3 11.9 13.3 100 0.0 ESE 13 19 7 10 1017.2 - 2.2
21/12:00pm 12.7 11.1 12.7 100 0.0 SE 13 17 7 9 1017.8 1017.7 2.2
21/11:30am 13.1 12.0 13.1 100 0.0 ESE 11 15 6 8 1017.8 - 2.2
21/11:00am 12.3 11.7 12.3 100 0.0 SE 7 11 4 6 1018.4 1018.3 2.2
21/10:30am 11.8 10.7 11.8 100 0.0 ESE 9 13 5 7 1018.5 - 2.2
21/10:00am 12.0 10.9 12.0 100 0.0 E 9 11 5 6 1018.9 1018.8 1.2
21/09:30am 12.4 11.0 12.2 99 0.1 E 11 13 6 7 1019.0 - 0.2
21/09:00am 12.9 12.2 11.3 90 0.8 E 6 11 3 6 1019.1 1019.0 1.6
21/08:30am 13.2 12.3 10.7 85 1.3 E 6 9 3 5 1018.9 - 1.0
21/08:00am 13.4 12.3 10.8 84 1.4 ENE 7 9 4 5 1018.7 1018.6 1.0
21/07:30am 13.4 12.3 10.6 83 1.5 SE 7 9 4 5 1018.5 - 1.0
21/07:00am 13.0 11.8 10.2 83 1.4 SSE 7 13 4 7 1018.3 1018.2 1.0
21/06:30am 12.4 10.8 10.1 86 1.2 SSE 9 13 5 7 1018.0 - 1.0
21/06:00am 11.8 9.8 8.6 81 1.6 S 9 13 5 7 1017.7 1017.6 1.0
21/05:30am 11.6 9.7 9.0 84 1.3 SSE 9 13 5 7 1017.5 - 1.0
21/05:00am 11.3 9.3 8.7 84 1.3 S 9 13 5 7 1017.3 1017.2 1.0
21/04:30am 11.1 9.2 9.2 88 0.9 S 9 13 5 7 1016.9 - 1.0
21/04:00am 10.7 8.9 9.3 91 0.7 S 9 13 5 7 1016.5 1016.4 1.0
21/03:30am 11.8 10.9 10.7 93 0.6 SW 6 9 3 5 1016.2 - 1.0
21/03:00am 13.1 10.3 11.5 90 0.8 W 17 28 9 15 1015.8 1015.7 1.0
21/02:30am 13.5 10.2 11.7 89 1.0 W 20 28 11 15 1016.0 - 1.0
21/02:00am 11.9 10.2 11.1 95 0.4 WSW 11 20 6 11 1015.9 1015.8 1.0
21/01:30am 11.9 10.3 10.3 90 0.8 WSW 9 13 5 7 1015.9 - 1.0
21/01:00am 12.1 10.1 10.2 88 1.0 W 11 13 6 7 1015.8 1015.7 1.0
21/12:30am 12.1 10.5 10.3 89 0.9 WSW 9 13 5 7 1015.5 - 1.0
21/12:00am 12.7 10.9 10.8 88 1.0 WSW 11 17 6 9 1015.3 1015.2 1.0
 
Date/Time
EST
Temp
°C
App
Temp
°C
Dew
Point
Rel
Hum
%
Delta-T
°C
Wind Press
QNH
hPa
Press
MSL
hPa
Rain
since 9 am
mm
Dir
 
Spd
km/h
Gust
km/h
Spd
kts
Gust
kts
20/11:30pm 13.2 12.1 11.9 92 0.7 WSW 9 15 5 8 1015.3 - 1.0
20/11:00pm 14.0 12.9 13.2 95 0.4 W 11 17 6 9 1015.0 1014.9 1.0
20/10:30pm 14.6 12.8 13.3 92 0.7 W 15 20 8 11 1014.8 - 1.0
20/10:00pm 15.3 12.1 14.2 93 0.6 W 24 32 13 17 1014.6 1014.5 1.0
20/09:30pm 15.6 12.5 14.6 94 0.6 W 24 33 13 18 1014.3 - 1.0
20/09:00pm 15.9 12.9 14.9 94 0.6 W 24 35 13 19 1014.0 1013.9 1.0
20/08:30pm 15.9 12.4 15.6 98 0.2 WNW 28 39 15 21 1013.7 - 1.0
20/08:00pm 15.9 12.2 15.9 100 0.0 WNW 30 35 16 19 1013.4 1013.3 1.0
20/07:30pm 15.8 11.6 15.6 99 0.1 WNW 32 44 17 24 1013.0 - 1.0
20/07:00pm 15.8 11.6 15.8 100 0.0 WNW 32 44 17 24 1012.8 1012.7 1.0
20/06:30pm 14.9 10.4 14.9 100 0.0 WNW 32 44 17 24 1012.5 - 1.0
20/06:06pm 14.2 9.5 14.2 100 0.0 W 32 50 17 27 1012.4 - 1.0
20/06:00pm 14.6 9.6 14.1 97 0.3 W 33 50 18 27 1012.4 1012.3 1.0
20/05:57pm 15.2 10.5 14.2 94 0.6 WNW 32 50 17 27 1012.3 - 1.0
20/05:30pm 15.7 10.7 14.1 90 0.9 WNW 33 50 18 27 1012.1 - 1.0
20/05:00pm 15.7 10.6 13.7 88 1.1 WNW 33 54 18 29 1011.7 1011.6 1.0
20/04:54pm 15.8 10.9 14.3 91 0.9 WNW 33 54 18 29 1011.7 - 1.0
20/04:30pm 15.8 10.6 13.5 86 1.3 WNW 33 48 18 26 1011.6 - 1.0
20/04:00pm 15.6 11.0 14.6 94 0.6 WNW 32 43 17 23 1011.5 1011.4 1.0
20/03:30pm 16.3 11.5 14.1 87 1.2 WNW 32 46 17 25 1011.3 - 1.0
20/03:00pm 16.2 12.1 13.9 86 1.3 WNW 28 39 15 21 1011.3 1011.2 1.0
20/02:30pm 16.4 11.6 14.1 86 1.3 WNW 32 44 17 24 1011.3 - 1.0
20/02:00pm 16.1 11.2 12.5 79 2.0 WNW 30 43 16 23 1011.3 1011.2 1.0
20/01:30pm 15.8 11.2 13.5 86 1.3 WNW 30 44 16 24 1011.5 - 1.0
20/01:00pm 15.0 11.3 14.0 94 0.6 WNW 26 35 14 19 1011.8 1011.7 1.0
20/12:30pm 14.2 10.8 13.7 97 0.3 W 24 43 13 23 1012.2 - 1.0
20/12:00pm 15.3 12.9 14.5 95 0.5 W 20 30 11 16 1012.5 1012.4 0.8
20/11:30am 14.7 12.6 14.7 100 0.0 W 19 37 10 20 1012.9 - 0.8
20/11:00am 13.9 13.1 13.9 100 0.0 W 11 15 6 8 1013.3 1013.2 0.8
20/10:30am 13.0 10.7 13.0 100 0.0 W 17 24 9 13 1013.6 - 0.6
20/10:00am 12.4 10.7 12.4 100 0.0 W 13 19 7 10 1013.8 1013.7 0.6
20/09:30am 13.0 11.5 13.0 100 0.0 WSW 13 19 7 10 1013.7 - 0.0
20/09:00am 13.1 12.0 13.1 100 0.0 W 11 20 6 11 1013.9 1013.8 0.8
20/08:30am 11.8 10.7 11.8 100 0.0 W 9 19 5 10 1014.0 - 0.6
20/08:00am 11.7 8.9 11.2 97 0.3 WSW 17 24 9 13 1014.0 1013.9 0.4
20/07:30am 12.3 10.4 10.5 89 0.9 W 11 15 6 8 1013.8 - 0.0
20/07:00am 12.4 10.4 10.0 85 1.2 W 11 17 6 9 1013.7 1013.6 0.0
20/06:30am 11.4 9.4 8.6 83 1.4 WSW 9 15 5 8 1013.5 - 0.0
20/06:00am 11.4 8.8 7.7 78 1.8 WSW 11 19 6 10 1013.5 1013.4 0.0
20/05:30am 11.9 9.0 8.0 77 1.9 WSW 13 22 7 12 1013.5 - 0.0
20/05:00am 12.4 9.2 8.3 76 2.0 W 15 26 8 14 1013.4 1013.3 0.0
20/04:30am 11.8 8.4 7.5 75 2.1 WSW 15 20 8 11 1013.4 - 0.0
20/04:00am 12.1 8.4 8.0 76 2.0 WSW 17 24 9 13 1013.3 1013.2 0.0
20/03:30am 12.6 7.6 8.1 74 2.2 WSW 24 35 13 19 1013.3 - 0.0
20/03:00am 13.5 7.1 8.4 71 2.5 W 32 44 17 24 1013.2 1013.1 0.0
20/02:30am 13.6 8.6 8.0 69 2.8 WNW 24 39 13 21 1013.4 - 0.0
20/02:00am 13.4 8.7 7.8 69 2.8 WNW 22 37 12 20 1013.6 1013.5 0.0
20/01:30am 13.5 7.9 7.1 65 3.1 WNW 26 39 14 21 1014.0 - 0.0
20/01:00am 13.4 8.0 6.5 63 3.3 WNW 24 37 13 20 1014.1 1014.0 0.0
20/12:30am 13.2 9.0 7.6 69 2.7 WNW 19 28 10 15 1014.4 - 0.0
20/12:00am 13.5 8.8 7.7 68 2.9 WNW 22 35 12 19 1014.5 1014.4 0.0
 
Date/Time
EST
Temp
°C
App
Temp
°C
Dew
Point
Rel
Hum
%
Delta-T
°C
Wind Press
QNH
hPa
Press
MSL
hPa
Rain
since 9 am
mm
Dir
 
Spd
km/h
Gust
km/h
Spd
kts
Gust
kts
19/11:30pm 13.8 10.4 7.6 66 3.1 WNW 15 28 8 15 1014.6 - 0.0
19/11:00pm 13.9 10.1 7.4 65 3.2 WNW 17 26 9 14 1014.7 1014.6 0.0
19/10:30pm 13.2 10.8 7.2 67 2.9 WNW 9 15 5 8 1015.0 - 0.0
19/10:00pm 12.7 9.4 6.5 66 3.0 W 13 17 7 9 1015.3 1015.2 0.0
19/09:30pm 13.3 9.9 7.7 69 2.8 WNW 15 20 8 11 1015.4 - 0.0
19/09:00pm 13.6 10.8 8.4 71 2.6 WNW 13 22 7 12 1015.4 1015.3 0.0
19/08:30pm 13.2 10.4 7.0 66 3.0 WNW 11 19 6 10 1015.4 - 0.0
19/08:00pm 13.2 10.1 7.2 67 2.9 WNW 13 17 7 9 1015.3 1015.2 0.0
19/07:30pm 12.8 10.0 7.0 68 2.8 WNW 11 17 6 9 1015.3 - 0.0
19/07:00pm 12.9 9.9 7.8 71 2.5 WNW 13 19 7 10 1015.5 1015.4 0.0
19/06:30pm 12.8 10.1 7.5 70 2.6 WNW 11 19 6 10 1015.3 - 0.0
19/06:00pm 13.0 10.0 7.9 71 2.5 WNW 13 19 7 10 1015.1 1015.0 0.0
19/05:30pm 13.2 9.7 7.4 68 2.8 WNW 15 20 8 11 1015.0 - 0.0
19/05:00pm 13.7 10.2 7.2 65 3.2 WNW 15 22 8 12 1014.9 1014.8 0.0
19/04:30pm 14.4 11.0 7.5 63 3.4 WNW 15 24 8 13 1014.9 - 0.0
19/04:00pm 14.9 11.1 7.5 61 3.7 WNW 17 24 9 13 1015.0 1014.9 0.0
19/03:30pm 15.2 11.3 7.3 59 3.9 WNW 17 22 9 12 1015.0 - 0.0
19/03:00pm 15.9 12.5 7.7 58 4.1 WNW 15 26 8 14 1014.9 1014.8 0.0
19/02:30pm 15.7 11.4 7.2 57 4.2 WNW 19 26 10 14 1014.8 - 0.0
19/02:00pm 16.2 12.0 7.4 56 4.4 WNW 19 26 10 14 1014.8 1014.7 0.0
19/01:30pm 16.3 12.5 7.5 56 4.4 W 17 26 9 14 1014.9 - 0.0
19/01:00pm 15.9 12.3 6.6 54 4.5 W 15 24 8 13 1015.2 1015.1 0.0
19/12:30pm 16.0 12.5 7.2 56 4.4 W 15 24 8 13 1015.5 - 0.0
19/12:00pm 15.7 12.0 6.4 54 4.5 W 15 24 8 13 1015.7 1015.6 0.0
19/11:30am 15.2 11.2 6.5 56 4.2 W 17 26 9 14 1015.9 - 0.0
19/11:00am 14.8 10.3 6.9 59 3.9 W 20 26 11 14 1016.0 1015.9 0.0
19/10:30am 14.3 10.3 6.6 60 3.7 W 17 24 9 13 1016.0 - 0.0
19/10:00am 14.1 10.4 6.5 60 3.7 W 15 24 8 13 1016.1 1016.0 0.0
19/09:30am 13.6 10.0 6.7 63 3.3 W 15 22 8 12 1016.1 - 0.0
19/09:00am 12.9 9.2 6.3 64 3.1 W 15 24 8 13 1015.9 1015.8 0.8
19/08:30am 12.4 9.1 6.2 66 2.9 WSW 13 20 7 11 1015.9 - 0.8
19/08:00am 11.3 7.9 5.8 69 2.6 WSW 13 20 7 11 1015.8 1015.7 0.8
19/07:30am 10.4 7.4 6.0 74 2.0 WSW 11 17 6 9 1015.4 - 0.8
19/07:00am 10.1 5.8 5.1 71 2.3 WSW 17 24 9 13 1015.0 1014.9 0.8
19/06:30am 9.8 5.5 5.2 73 2.1 WSW 17 24 9 13 1014.8 - 0.8
19/06:00am 9.5 5.3 5.5 76 1.8 WSW 17 24 9 13 1014.6 1014.5 0.8
19/05:30am 9.2 5.8 5.8 79 1.6 WSW 13 20 7 11 1014.5 - 0.8
19/05:00am 9.1 5.7 6.0 81 1.4 WSW 13 17 7 9 1014.4 1014.3 0.8
19/04:30am 9.2 5.8 6.1 81 1.4 WSW 13 20 7 11 1014.1 - 0.8
19/04:00am 9.6 5.6 6.7 82 1.4 WSW 17 26 9 14 1014.0 1013.9 0.8
19/03:30am 9.8 5.8 6.7 81 1.5 WSW 17 26 9 14 1013.8 - 0.8
19/03:00am 10.0 6.1 6.9 81 1.5 WSW 17 24 9 13 1013.9 1013.8 0.8
19/02:30am 10.1 6.1 6.8 80 1.6 WSW 17 26 9 14 1013.9 - 0.8
19/02:00am 9.9 5.5 6.6 80 1.5 WSW 19 26 10 14 1013.7 1013.6 0.8
19/01:30am 10.2 5.8 6.5 78 1.7 WSW 19 28 10 15 1013.7 - 0.8
19/01:00am 9.9 5.8 6.3 78 1.7 WSW 17 20 9 11 1013.7 1013.6 0.8
19/12:30am 10.6 5.5 6.2 74 2.0 WSW 22 33 12 18 1013.6 - 0.8
19/12:00am 10.4 6.0 6.4 76 1.9 WSW 19 26 10 14 1013.6 1013.5 0.8
 
Date/Time
EST
Temp
°C
App
Temp
°C
Dew
Point
Rel
Hum
%
Delta-T
°C
Wind Press
QNH
hPa
Press
MSL
hPa
Rain
since 9 am
mm
Dir
 
Spd
km/h
Gust
km/h
Spd
kts
Gust
kts
18/11:30pm 10.7 6.8 7.0 78 1.8 WSW 17 26 9 14 1013.5 - 0.8
18/11:00pm 10.9 7.3 6.8 76 1.9 WSW 15 22 8 12 1013.5 1013.4 0.8
18/10:30pm 11.5 7.2 7.2 75 2.1 W 19 32 10 17 1013.2 - 0.8
18/10:00pm 11.9 7.5 7.4 74 2.2 WSW 20 30 11 16 1013.4 1013.3 0.8
18/09:30pm 12.1 7.9 7.4 73 2.3 WSW 19 28 10 15 1013.2 - 0.8
18/09:00pm 12.7 8.4 8.0 73 2.3 WSW 20 33 11 18 1012.9 1012.8 0.8
18/08:30pm 13.2 8.6 8.3 72 2.4 W 22 35 12 19 1012.2 - 0.8
18/08:00pm 13.4 8.6 7.2 66 3.0 WSW 22 32 12 17 1012.3 1012.2 0.8
18/07:30pm 13.7 9.4 7.9 68 2.9 WSW 20 32 11 17 1011.9 - 0.8
18/07:00pm 14.0 9.3 7.8 66 3.1 WSW 22 35 12 19 1011.5 1011.4 0.8
18/06:30pm 14.2 9.5 7.9 66 3.1 WSW 22 35 12 19 1011.1 - 0.8
18/06:00pm 14.3 10.9 9.3 72 2.6 W 17 28 9 15 1010.3 1010.3 0.8
18/05:30pm 14.1 11.5 9.3 73 2.5 WSW 13 22 7 12 1009.9 - 0.8
18/05:00pm 14.9 11.4 10.1 73 2.5 W 19 24 10 13 1009.5 1009.5 0.8
18/04:30pm 15.8 11.8 10.6 71 2.8 W 22 39 12 21 1008.9 - 0.8
18/04:00pm 16.0 11.8 11.2 73 2.6 W 24 37 13 20 1008.5 1008.5 0.8
18/03:30pm 15.8 9.9 11.2 74 2.5 W 33 52 18 28 1007.7 - 0.8
18/03:27pm 15.7 9.8 11.3 75 2.4 W 33 54 18 29 1007.7 - 0.8
18/03:00pm 15.2 9.2 12.0 81 1.7 W 35 48 19 26 1007.0 1007.0 0.8
18/02:30pm 14.5 8.7 12.7 89 1.0 W 35 54 19 29 1006.8 - 0.8
18/02:27pm 14.6 9.3 13.0 90 0.9 W 33 54 18 29 1006.8 - 0.8

Other Formats:

Comma delimited format used in spreadsheet applications
http://www.bom.gov.au/fwo/IDT60801/IDT60801.95985.axf

JavaScript Object Notation format (JSON) in row-major order
http://www.bom.gov.au/fwo/IDT60801/IDT60801.95985.json